Time;durP1;ratioP1;P1;durP2;ratioP2;P2;SDS_P1;SDS_P2;PMS_P1;PMS_P2;Temp;Humidity;BMP_temperature;BMP_pressure;BME280_temperature;BME280_humidity;BME280_pressure;Samples;Min_cycle;Max_cycle;Signal;HPM_P1;HPM_P2
2024/01/11 00:01:10;;;;;;;33.97;19.05;;;;;;;;;;5096237;28;20044;-64
2024/01/11 00:03:36;;;;;;;35.42;18.05;;;;;;;;;;5091784;28;20046;-64
2024/01/11 00:06:04;;;;;;;38.25;19.52;;;;;;;;;;5106120;28;20403;-64
2024/01/11 00:08:30;;;;;;;39.95;19.70;;;;;;;;;;5102190;28;20413;-64
2024/01/11 00:10:56;;;;;;;37.40;19.58;;;;;;;;;;5093900;28;20044;-64
2024/01/11 00:13:22;;;;;;;36.45;20.17;;;;;;;;;;5104381;28;20084;-64
2024/01/11 00:15:48;;;;;;;42.88;21.10;;;;;;;;;;5107427;28;20085;-64
2024/01/11 00:18:15;;;;;;;40.00;20.15;;;;;;;;;;5106221;28;20042;-64
2024/01/11 00:20:41;;;;;;;37.45;19.58;;;;;;;;;;5099073;28;20044;-64
2024/01/11 00:23:07;;;;;;;36.80;19.95;;;;;;;;;;5101777;28;20483;-64
2024/01/11 00:25:33;;;;;;;38.08;20.27;;;;;;;;;;5096122;28;20043;-64
2024/01/11 00:27:59;;;;;;;39.00;20.05;;;;;;;;;;5105117;28;20040;-64
2024/01/11 00:30:25;;;;;;;38.42;20.23;;;;;;;;;;5112466;27;20114;-64
2024/01/11 00:32:52;;;;;;;34.58;19.27;;;;;;;;;;5101452;27;20078;-64
2024/01/11 00:35:18;;;;;;;36.70;19.75;;;;;;;;;;5107074;27;20047;-64
2024/01/11 00:37:44;;;;;;;34.97;18.80;;;;;;;;;;5124743;27;20031;-64
2024/01/11 00:40:10;;;;;;;33.50;19.27;;;;;;;;;;5124354;27;20420;-64
2024/01/11 00:42:36;;;;;;;40.03;19.50;;;;;;;;;;5128029;27;20039;-64
2024/01/11 00:45:03;;;;;;;36.45;20.17;;;;;;;;;;5106011;27;20126;-64
2024/01/11 00:47:29;;;;;;;38.40;20.88;;;;;;;;;;5130026;27;20039;-64
2024/01/11 00:49:55;;;;;;;35.78;19.90;;;;;;;;;;5106102;27;20042;-64
2024/01/11 00:52:21;;;;;;;41.58;22.83;;;;;;;;;;5111754;27;20098;-64
2024/01/11 00:54:47;;;;;;;44.30;22.65;;;;;;;;;;5123844;27;20047;-64
2024/01/11 00:57:13;;;;;;;42.55;21.67;;;;;;;;;;5127776;27;20043;-64
2024/01/11 00:59:41;;;;;;;43.35;22.15;;;;;;;;;;5082641;27;20118;-64
2024/01/11 01:02:07;;;;;;;39.30;21.35;;;;;;;;;;5104782;28;20039;-64
2024/01/11 01:04:33;;;;;;;38.35;20.88;;;;;;;;;;5130445;27;20046;-64
2024/01/11 01:06:59;;;;;;;42.05;24.05;;;;;;;;;;5108324;27;20046;-64
2024/01/11 01:09:25;;;;;;;39.63;20.15;;;;;;;;;;5123537;27;20537;-64
2024/01/11 01:11:52;;;;;;;37.42;20.73;;;;;;;;;;5119924;27;20039;-64
2024/01/11 01:14:18;;;;;;;42.58;20.95;;;;;;;;;;5105523;27;20061;-64
2024/01/11 01:16:44;;;;;;;44.45;23.13;;;;;;;;;;5103721;27;20043;-64
2024/01/11 01:19:10;;;;;;;42.58;22.35;;;;;;;;;;5106949;28;20429;-64
2024/01/11 01:21:37;;;;;;;41.17;22.80;;;;;;;;;;5102870;27;20042;-64
2024/01/11 01:24:03;;;;;;;43.83;21.67;;;;;;;;;;5128726;27;20039;-64
2024/01/11 01:26:29;;;;;;;40.05;21.73;;;;;;;;;;5107333;27;20043;-64
2024/01/11 01:28:56;;;;;;;38.63;21.75;;;;;;;;;;5120561;27;20477;-64
2024/01/11 01:31:22;;;;;;;39.92;21.45;;;;;;;;;;5118445;27;20051;-64
2024/01/11 01:33:49;;;;;;;39.05;20.27;;;;;;;;;;5120471;27;20050;-64
2024/01/11 01:36:15;;;;;;;34.83;19.75;;;;;;;;;;5099260;28;20136;-64
2024/01/11 01:38:41;;;;;;;39.95;21.45;;;;;;;;;;5103365;27;20066;-64
2024/01/11 01:41:07;;;;;;;37.65;20.30;;;;;;;;;;5106424;28;20043;-64
2024/01/11 01:43:33;;;;;;;39.35;20.95;;;;;;;;;;5122827;27;20050;-64
2024/01/11 01:46:00;;;;;;;42.35;20.02;;;;;;;;;;5118993;27;20043;-64
2024/01/11 01:48:27;;;;;;;36.22;19.17;;;;;;;;;;5126805;27;20103;-65
2024/01/11 01:50:53;;;;;;;39.70;20.70;;;;;;;;;;5107707;27;20130;-64
2024/01/11 01:53:20;;;;;;;37.95;20.15;;;;;;;;;;5107098;27;20070;-64
2024/01/11 01:55:48;;;;;;;37.90;20.23;;;;;;;;;;5107705;27;20069;-64
2024/01/11 01:58:14;;;;;;;40.10;23.20;;;;;;;;;;5124392;27;20680;-64
2024/01/11 02:00:41;;;;;;;40.55;20.75;;;;;;;;;;5108016;27;20122;-64
2024/01/11 02:03:09;;;;;;;42.28;21.40;;;;;;;;;;5106566;27;20398;-64
2024/01/11 02:05:35;;;;;;;39.47;20.50;;;;;;;;;;5107736;27;20046;-64
2024/01/11 02:08:04;;;;;;;38.38;20.48;;;;;;;;;;5125693;27;20043;-64
2024/01/11 02:10:33;;;;;;;42.08;21.65;;;;;;;;;;5124671;27;20043;-64
2024/01/11 02:12:59;;;;;;;37.60;19.75;;;;;;;;;;5125710;27;20118;-64
2024/01/11 02:15:26;;;;;;;42.72;22.58;;;;;;;;;;5116075;27;20476;-64
2024/01/11 02:17:52;;;;;;;40.92;21.17;;;;;;;;;;5127877;27;20115;-65
2024/01/11 02:20:18;;;;;;;40.85;20.83;;;;;;;;;;5098782;28;20050;-65
2024/01/11 02:22:48;;;;;;;45.67;24.65;;;;;;;;;;5117997;27;20039;-64
2024/01/11 02:25:14;;;;;;;41.33;20.98;;;;;;;;;;5124368;27;20070;-65
2024/01/11 02:27:48;;;;;;;38.78;20.15;;;;;;;;;;5126370;27;20039;-65
2024/01/11 02:30:15;;;;;;;41.90;21.67;;;;;;;;;;5120507;27;20077;-64
2024/01/11 02:32:41;;;;;;;39.28;19.92;;;;;;;;;;5125233;28;20043;-65
2024/01/11 02:35:08;;;;;;;40.65;21.30;;;;;;;;;;5101208;27;21841;-65
2024/01/11 02:37:34;;;;;;;42.50;22.25;;;;;;;;;;5100408;28;20047;-64
2024/01/11 02:40:00;;;;;;;40.03;21.10;;;;;;;;;;5093095;28;20402;-65
2024/01/11 02:42:26;;;;;;;38.92;21.42;;;;;;;;;;5122706;28;20435;-65
2024/01/11 02:44:53;;;;;;;41.15;22.05;;;;;;;;;;5107001;28;20036;-65
2024/01/11 02:47:19;;;;;;;39.78;21.27;;;;;;;;;;5128742;28;20075;-64
2024/01/11 02:49:45;;;;;;;42.40;21.25;;;;;;;;;;5107482;28;20044;-65
2024/01/11 02:52:11;;;;;;;38.63;22.02;;;;;;;;;;5100871;27;20173;-65
2024/01/11 02:54:37;;;;;;;41.90;22.08;;;;;;;;;;5104647;27;20494;-65
2024/01/11 02:57:04;;;;;;;39.38;20.05;;;;;;;;;;5112435;27;20216;-65
2024/01/11 02:59:30;;;;;;;44.00;22.13;;;;;;;;;;5108615;27;20424;-64
2024/01/11 03:01:57;;;;;;;43.63;21.92;;;;;;;;;;5098215;27;20036;-65
2024/01/11 03:04:23;;;;;;;46.85;24.05;;;;;;;;;;5106855;27;20050;-65
2024/01/11 03:06:49;;;;;;;40.85;21.63;;;;;;;;;;5111786;27;20151;-65
2024/01/11 03:09:15;;;;;;;50.75;24.10;;;;;;;;;;5128492;27;20042;-65
2024/01/11 03:11:41;;;;;;;48.17;24.23;;;;;;;;;;5111088;27;20558;-65
2024/01/11 03:14:07;;;;;;;46.97;23.20;;;;;;;;;;5128228;27;20050;-65
2024/01/11 03:16:34;;;;;;;49.85;25.13;;;;;;;;;;5112517;27;20060;-65
2024/01/11 03:19:00;;;;;;;47.42;24.15;;;;;;;;;;5132195;27;20031;-65
2024/01/11 03:21:27;;;;;;;51.88;24.70;;;;;;;;;;5110899;27;20045;-65
2024/01/11 03:23:53;;;;;;;50.65;25.75;;;;;;;;;;5131248;27;20471;-65
2024/01/11 03:26:19;;;;;;;47.38;24.13;;;;;;;;;;5110408;27;20047;-65
2024/01/11 03:28:45;;;;;;;52.70;25.33;;;;;;;;;;5103011;27;20130;-65
2024/01/11 03:31:12;;;;;;;50.50;25.48;;;;;;;;;;5089187;27;20059;-65
2024/01/11 03:33:38;;;;;;;46.72;23.20;;;;;;;;;;5126179;27;20456;-65
2024/01/11 03:36:08;;;;;;;48.08;24.83;;;;;;;;;;5121998;27;20113;-65
2024/01/11 03:38:34;;;;;;;43.00;23.00;;;;;;;;;;5101563;27;20062;-65
2024/01/11 03:41:01;;;;;;;43.67;23.13;;;;;;;;;;5124911;27;20041;-65
2024/01/11 03:43:27;;;;;;;48.60;24.30;;;;;;;;;;5125447;27;20093;-65
2024/01/11 03:45:53;;;;;;;46.17;22.63;;;;;;;;;;5131676;27;20096;-65
2024/01/11 03:48:19;;;;;;;36.38;20.67;;;;;;;;;;5124359;27;20043;-65
2024/01/11 03:50:45;;;;;;;40.85;20.50;;;;;;;;;;5123006;27;20091;-65
2024/01/11 03:53:12;;;;;;;38.05;20.23;;;;;;;;;;5125874;27;20156;-65
2024/01/11 03:55:38;;;;;;;41.20;20.95;;;;;;;;;;5129033;27;20057;-65
2024/01/11 03:58:04;;;;;;;41.92;22.70;;;;;;;;;;5129196;27;20062;-65
2024/01/11 04:00:30;;;;;;;43.70;22.75;;;;;;;;;;5121680;27;20408;-65
2024/01/11 04:02:56;;;;;;;42.08;22.80;;;;;;;;;;5124778;27;20050;-65
2024/01/11 04:05:22;;;;;;;40.95;20.80;;;;;;;;;;5124121;27;20103;-65
2024/01/11 04:07:48;;;;;;;46.97;23.42;;;;;;;;;;5107081;27;20051;-65
2024/01/11 04:10:16;;;;;;;45.45;22.50;;;;;;;;;;5108181;27;20060;-65
2024/01/11 04:12:42;;;;;;;40.83;21.42;;;;;;;;;;5096017;28;20043;-65
2024/01/11 04:15:09;;;;;;;45.05;22.77;;;;;;;;;;5102352;27;20039;-65
2024/01/11 04:17:35;;;;;;;43.63;23.20;;;;;;;;;;5105025;27;20044;-65
2024/01/11 04:20:01;;;;;;;42.00;22.38;;;;;;;;;;5123331;27;20090;-65
2024/01/11 04:22:29;;;;;;;39.35;21.50;;;;;;;;;;5105568;27;20440;-65
2024/01/11 04:24:55;;;;;;;39.83;21.33;;;;;;;;;;5104891;28;20067;-65
2024/01/11 04:27:21;;;;;;;45.33;22.40;;;;;;;;;;5122007;27;20050;-65
2024/01/11 04:29:47;;;;;;;44.83;21.30;;;;;;;;;;5095030;27;20036;-65
2024/01/11 04:32:14;;;;;;;46.33;23.52;;;;;;;;;;5085520;27;20047;-65
2024/01/11 04:34:40;;;;;;;44.08;22.45;;;;;;;;;;5101117;27;20066;-65
2024/01/11 04:37:07;;;;;;;41.53;21.65;;;;;;;;;;5123275;27;20156;-65
2024/01/11 04:39:33;;;;;;;41.78;22.00;;;;;;;;;;5089376;27;20047;-65
2024/01/11 04:42:00;;;;;;;41.28;22.45;;;;;;;;;;5129027;27;21345;-65
2024/01/11 04:44:26;;;;;;;44.00;24.23;;;;;;;;;;5120451;27;20039;-65
2024/01/11 04:46:53;;;;;;;44.63;23.98;;;;;;;;;;5120316;27;20048;-65
2024/01/11 04:49:19;;;;;;;44.67;22.35;;;;;;;;;;5087075;27;20055;-65
2024/01/11 04:51:45;;;;;;;45.75;23.13;;;;;;;;;;5100746;28;20093;-65
2024/01/11 04:54:11;;;;;;;49.45;23.92;;;;;;;;;;5117081;27;20053;-65
2024/01/11 04:56:37;;;;;;;46.30;24.10;;;;;;;;;;5121002;27;20114;-65
2024/01/11 04:59:03;;;;;;;46.90;23.13;;;;;;;;;;5124830;27;20057;-65
2024/01/11 05:01:30;;;;;;;43.45;23.30;;;;;;;;;;5110022;27;20035;-65
2024/01/11 05:03:56;;;;;;;45.40;22.80;;;;;;;;;;5123023;27;20088;-65
2024/01/11 05:06:23;;;;;;;44.00;23.38;;;;;;;;;;5100409;27;20171;-65
2024/01/11 05:08:51;;;;;;;44.47;24.25;;;;;;;;;;5127154;27;20122;-65
2024/01/11 05:11:19;;;;;;;51.80;27.42;;;;;;;;;;5107493;27;20130;-65
2024/01/11 05:13:47;;;;;;;49.03;25.48;;;;;;;;;;5120424;27;21106;-65
2024/01/11 05:16:27;;;;;;;54.53;26.67;;;;;;;;;;5106219;28;20047;-65
2024/01/11 05:18:53;;;;;;;48.05;25.73;;;;;;;;;;5125476;27;20432;-65
2024/01/11 05:21:20;;;;;;;52.08;27.25;;;;;;;;;;5108687;27;20055;-65
2024/01/11 05:23:46;;;;;;;53.00;26.52;;;;;;;;;;5108213;27;20152;-65
2024/01/11 05:26:13;;;;;;;50.30;25.35;;;;;;;;;;5126762;27;20432;-65
2024/01/11 05:28:39;;;;;;;51.30;25.65;;;;;;;;;;5102220;27;20110;-65
2024/01/11 05:31:06;;;;;;;50.13;25.40;;;;;;;;;;5127323;27;20121;-65
2024/01/11 05:33:32;;;;;;;53.00;27.25;;;;;;;;;;5107059;27;20156;-65
2024/01/11 05:35:59;;;;;;;53.95;27.25;;;;;;;;;;5124507;27;20075;-65
2024/01/11 05:38:25;;;;;;;55.35;28.52;;;;;;;;;;5106493;27;20039;-65
2024/01/11 05:40:51;;;;;;;58.00;27.17;;;;;;;;;;5105037;27;20497;-65
2024/01/11 05:43:17;;;;;;;52.05;26.85;;;;;;;;;;5124244;27;20122;-65
2024/01/11 05:45:43;;;;;;;53.92;28.00;;;;;;;;;;5099632;27;20042;-65
2024/01/11 05:48:11;;;;;;;52.45;28.33;;;;;;;;;;5099575;27;20047;-65
2024/01/11 05:50:37;;;;;;;55.15;29.33;;;;;;;;;;5105311;27;20032;-65
2024/01/11 05:53:03;;;;;;;51.05;27.20;;;;;;;;;;5098931;27;20135;-65
2024/01/11 05:55:29;;;;;;;55.33;27.85;;;;;;;;;;5103262;27;20100;-65
2024/01/11 05:57:56;;;;;;;54.15;28.48;;;;;;;;;;5096715;28;20724;-65
2024/01/11 06:00:23;;;;;;;56.67;27.80;;;;;;;;;;5100895;27;20035;-65
2024/01/11 06:02:49;;;;;;;56.03;28.15;;;;;;;;;;5118238;27;20047;-65
2024/01/11 06:05:15;;;;;;;50.60;28.38;;;;;;;;;;5101120;27;20089;-65
2024/01/11 06:07:42;;;;;;;52.35;26.77;;;;;;;;;;5123345;27;20038;-64
2024/01/11 06:10:08;;;;;;;62.45;30.25;;;;;;;;;;5102753;27;20050;-65
2024/01/11 06:12:35;;;;;;;55.78;29.15;;;;;;;;;;5123218;27;20547;-64
2024/01/11 06:15:02;;;;;;;53.60;28.35;;;;;;;;;;5121418;27;20084;-65
2024/01/11 06:17:28;;;;;;;55.30;28.23;;;;;;;;;;5085509;27;20439;-65
2024/01/11 06:19:55;;;;;;;54.33;27.27;;;;;;;;;;5118379;27;20088;-65
2024/01/11 06:22:21;;;;;;;56.67;29.13;;;;;;;;;;5092946;27;20055;-65
2024/01/11 06:24:47;;;;;;;52.90;28.20;;;;;;;;;;5090827;28;20491;-65
2024/01/11 06:27:13;;;;;;;55.80;29.00;;;;;;;;;;5119681;27;20043;-65
2024/01/11 06:29:40;;;;;;;56.92;30.23;;;;;;;;;;5101672;28;20043;-65
2024/01/11 06:32:06;;;;;;;56.40;28.38;;;;;;;;;;5099319;27;20075;-65
2024/01/11 06:34:32;;;;;;;59.30;28.98;;;;;;;;;;5098978;27;20394;-65
2024/01/11 06:36:58;;;;;;;54.70;29.17;;;;;;;;;;5100538;28;20047;-65
2024/01/11 06:39:25;;;;;;;52.10;29.85;;;;;;;;;;5096734;28;20039;-65
2024/01/11 06:41:51;;;;;;;58.88;29.98;;;;;;;;;;5100411;28;20368;-65
2024/01/11 06:44:17;;;;;;;59.42;29.83;;;;;;;;;;5101627;28;20051;-65
2024/01/11 06:46:44;;;;;;;58.17;29.77;;;;;;;;;;5116277;28;20043;-65
2024/01/11 06:49:11;;;;;;;59.75;30.35;;;;;;;;;;5119567;28;20107;-65
2024/01/11 06:51:38;;;;;;;51.97;28.98;;;;;;;;;;5117798;28;20045;-65
2024/01/11 06:54:05;;;;;;;54.90;28.13;;;;;;;;;;5095834;28;20062;-65
2024/01/11 06:56:31;;;;;;;55.75;29.58;;;;;;;;;;5122875;28;20187;-65
2024/01/11 06:58:57;;;;;;;55.53;29.90;;;;;;;;;;5120468;28;20039;-65
2024/01/11 07:01:23;;;;;;;59.50;30.15;;;;;;;;;;5100533;27;20123;-65
2024/01/11 07:03:49;;;;;;;55.95;29.75;;;;;;;;;;5103322;28;20126;-65
2024/01/11 07:06:16;;;;;;;62.70;30.27;;;;;;;;;;5101555;27;20544;-65
2024/01/11 07:08:42;;;;;;;59.30;29.17;;;;;;;;;;5121328;28;20362;-65
2024/01/11 07:11:08;;;;;;;63.72;31.45;;;;;;;;;;5100818;28;20040;-65
2024/01/11 07:13:34;;;;;;;59.45;30.20;;;;;;;;;;5100122;28;20176;-65
2024/01/11 07:16:02;;;;;;;54.25;28.73;;;;;;;;;;5121472;28;20118;-65
2024/01/11 07:18:29;;;;;;;50.35;26.75;;;;;;;;;;5098680;28;20042;-65
2024/01/11 07:20:58;;;;;;;55.13;29.52;;;;;;;;;;5122629;28;20453;-66
2024/01/11 07:23:24;;;;;;;53.90;26.80;;;;;;;;;;5117726;28;20127;-65
2024/01/11 07:25:51;;;;;;;57.30;30.27;;;;;;;;;;5100556;28;20070;-65
2024/01/11 07:28:17;;;;;;;51.83;28.42;;;;;;;;;;5096377;28;20048;-65
2024/01/11 07:30:44;;;;;;;52.78;28.92;;;;;;;;;;5076313;28;20047;-65
2024/01/11 07:33:11;;;;;;;55.65;30.00;;;;;;;;;;5094482;28;20143;-65
2024/01/11 07:35:37;;;;;;;53.72;28.63;;;;;;;;;;5116737;28;20039;-65
2024/01/11 07:38:03;;;;;;;56.67;29.95;;;;;;;;;;5096187;28;20041;-65
2024/01/11 07:40:30;;;;;;;53.00;27.95;;;;;;;;;;5117599;27;20056;-65
2024/01/11 07:42:56;;;;;;;54.97;29.17;;;;;;;;;;5123161;27;20031;-65
2024/01/11 07:45:22;;;;;;;55.90;29.88;;;;;;;;;;5119411;27;20035;-65
2024/01/11 07:47:48;;;;;;;56.05;29.63;;;;;;;;;;5122424;27;20047;-65
2024/01/11 07:50:14;;;;;;;59.53;31.13;;;;;;;;;;5107418;27;20536;-65
2024/01/11 07:52:41;;;;;;;54.33;27.85;;;;;;;;;;5104611;27;20035;-65
2024/01/11 07:55:08;;;;;;;53.75;29.13;;;;;;;;;;5118322;27;20082;-65
2024/01/11 07:57:34;;;;;;;51.45;27.08;;;;;;;;;;5116811;27;20460;-65
2024/01/11 08:00:01;;;;;;;55.83;29.10;;;;;;;;;;5121688;27;20064;-64
2024/01/11 08:02:27;;;;;;;52.67;28.13;;;;;;;;;;5123017;27;20039;-65
2024/01/11 08:04:53;;;;;;;54.72;28.35;;;;;;;;;;5120530;27;20058;-65
2024/01/11 08:07:20;;;;;;;49.63;28.13;;;;;;;;;;5116275;27;20488;-70
2024/01/11 08:09:46;;;;;;;50.47;26.27;;;;;;;;;;5113081;27;20066;-66
2024/01/11 08:12:13;;;;;;;51.30;27.25;;;;;;;;;;5117477;27;20039;-65
2024/01/11 08:14:41;;;;;;;52.33;26.52;;;;;;;;;;5099787;27;20166;-65
2024/01/11 08:17:08;;;;;;;50.83;27.38;;;;;;;;;;5120086;27;20115;-64
2024/01/11 08:19:35;;;;;;;52.40;26.77;;;;;;;;;;5120376;27;20035;-66
2024/01/11 08:22:02;;;;;;;46.33;25.75;;;;;;;;;;5119807;27;20071;-64
2024/01/11 08:24:28;;;;;;;52.90;28.08;;;;;;;;;;5103193;27;20069;-65
2024/01/11 08:26:54;;;;;;;49.45;26.63;;;;;;;;;;5122171;27;20028;-65
2024/01/11 08:29:22;;;;;;;54.25;28.55;;;;;;;;;;5108227;27;20512;-65
2024/01/11 08:31:48;;;;;;;50.63;26.65;;;;;;;;;;5079810;28;20054;-65
2024/01/11 08:34:14;;;;;;;53.40;27.15;;;;;;;;;;5095278;28;20180;-65
2024/01/11 08:36:40;;;;;;;52.58;27.13;;;;;;;;;;5093358;28;20044;-66
2024/01/11 08:39:07;;;;;;;52.03;26.50;;;;;;;;;;5092843;28;20491;-66
2024/01/11 08:41:35;;;;;;;49.83;25.50;;;;;;;;;;5109235;28;20055;-69
2024/01/11 08:44:02;;;;;;;49.28;26.10;;;;;;;;;;5094072;28;20075;-72
2024/01/11 08:46:30;;;;;;;48.20;25.52;;;;;;;;;;5089760;28;20052;-69
2024/01/11 08:48:56;;;;;;;48.75;25.92;;;;;;;;;;5099348;28;20050;-71
2024/01/11 08:51:23;;;;;;;54.75;26.30;;;;;;;;;;5092962;28;20081;-65
2024/01/11 08:53:49;;;;;;;49.88;26.50;;;;;;;;;;5100674;28;20137;-66
2024/01/11 08:56:17;;;;;;;51.95;25.98;;;;;;;;;;5102795;28;20127;-67
2024/01/11 08:58:43;;;;;;;47.78;24.90;;;;;;;;;;5111851;27;20108;-75
2024/01/11 09:01:10;;;;;;;47.42;25.85;;;;;;;;;;5093441;28;20058;-70
2024/01/11 09:03:36;;;;;;;48.47;26.48;;;;;;;;;;5082566;28;20035;-70
2024/01/11 09:06:04;;;;;;;53.45;26.27;;;;;;;;;;5095501;28;20466;-71
2024/01/11 09:08:30;;;;;;;59.22;27.75;;;;;;;;;;5099552;27;20043;-65
2024/01/11 09:10:58;;;;;;;57.45;28.33;;;;;;;;;;5091756;28;20048;-66
2024/01/11 09:13:25;;;;;;;49.38;25.95;;;;;;;;;;5096701;28;20929;-69
2024/01/11 09:15:52;;;;;;;48.55;26.65;;;;;;;;;;5091302;28;20067;-66
2024/01/11 09:18:19;;;;;;;52.25;28.25;;;;;;;;;;5097485;27;20047;-73
2024/01/11 09:20:45;;;;;;;52.78;29.05;;;;;;;;;;5092554;28;20039;-72
2024/01/11 09:23:11;;;;;;;51.10;26.33;;;;;;;;;;5097556;28;20470;-67
2024/01/11 09:25:38;;;;;;;49.22;26.73;;;;;;;;;;5093873;28;20134;-67
2024/01/11 09:28:04;;;;;;;46.65;26.00;;;;;;;;;;5078076;28;20391;-67
2024/01/11 09:30:30;;;;;;;50.13;26.90;;;;;;;;;;5098309;28;20436;-67
2024/01/11 09:32:56;;;;;;;53.08;27.58;;;;;;;;;;5101648;27;20086;-76
2024/01/11 09:35:23;;;;;;;52.58;28.15;;;;;;;;;;5101646;27;20039;-70
2024/01/11 09:37:50;;;;;;;50.58;27.13;;;;;;;;;;5123200;27;20051;-71
2024/01/11 09:40:16;;;;;;;50.00;26.40;;;;;;;;;;5106319;27;20047;-71
2024/01/11 09:42:43;;;;;;;54.70;28.02;;;;;;;;;;5108244;27;20050;-69
2024/01/11 09:45:12;;;;;;;51.60;28.25;;;;;;;;;;5106509;27;20035;-71
2024/01/11 09:47:39;;;;;;;50.75;27.23;;;;;;;;;;5121991;27;20035;-72
2024/01/11 09:50:06;;;;;;;47.22;26.77;;;;;;;;;;5084873;27;20067;-70
2024/01/11 09:52:32;;;;;;;48.53;26.38;;;;;;;;;;5100462;27;20106;-70
2024/01/11 09:54:59;;;;;;;45.65;26.17;;;;;;;;;;5124958;27;20031;-79
2024/01/11 09:57:27;;;;;;;47.17;26.17;;;;;;;;;;5104919;27;20135;-69
2024/01/11 09:59:56;;;;;;;49.15;27.08;;;;;;;;;;5123086;27;20043;-69
2024/01/11 10:02:24;;;;;;;48.63;28.40;;;;;;;;;;5098266;27;20047;-69
2024/01/11 10:04:52;;;;;;;45.35;25.17;;;;;;;;;;5115910;27;20056;-69
2024/01/11 10:07:20;;;;;;;49.45;26.67;;;;;;;;;;5098166;27;20390;-69
2024/01/11 10:09:47;;;;;;;47.50;26.38;;;;;;;;;;5097865;27;20047;-69
2024/01/11 10:12:13;;;;;;;45.45;25.25;;;;;;;;;;5099496;27;20067;-71
2024/01/11 10:14:39;;;;;;;49.05;27.48;;;;;;;;;;5098471;27;20070;-67
2024/01/11 10:17:06;;;;;;;49.70;26.92;;;;;;;;;;5123318;27;20047;-70
2024/01/11 10:19:32;;;;;;;41.88;24.88;;;;;;;;;;5102745;28;20074;-69
2024/01/11 10:21:59;;;;;;;46.10;25.95;;;;;;;;;;5124561;27;20058;-69
2024/01/11 10:24:26;;;;;;;47.92;25.17;;;;;;;;;;5121052;27;20046;-69
2024/01/11 10:26:56;;;;;;;44.15;25.80;;;;;;;;;;5099697;27;20048;-70
2024/01/11 10:29:23;;;;;;;48.65;26.00;;;;;;;;;;5105304;28;20876;-70
2024/01/11 10:31:51;;;;;;;46.30;25.05;;;;;;;;;;5118152;27;20043;-69
2024/01/11 10:34:17;;;;;;;45.65;24.45;;;;;;;;;;5101220;28;20055;-69
2024/01/11 10:36:43;;;;;;;46.85;25.73;;;;;;;;;;5098337;28;20390;-70
2024/01/11 10:39:10;;;;;;;48.97;25.60;;;;;;;;;;5113526;28;20046;-69
2024/01/11 10:41:45;;;;;;;45.10;25.13;;;;;;;;;;5115161;28;20124;-69
2024/01/11 10:44:16;;;;;;;44.45;25.55;;;;;;;;;;5114314;27;20573;-78
2024/01/11 10:46:45;;;;;;;47.85;24.40;;;;;;;;;;5095179;28;20043;-74
2024/01/11 10:49:12;;;;;;;48.92;25.58;;;;;;;;;;5095190;28;20052;-70
2024/01/11 10:51:39;;;;;;;44.17;24.25;;;;;;;;;;5101429;28;20061;-72
2024/01/11 10:54:06;;;;;;;45.70;24.42;;;;;;;;;;5103777;28;21291;-69
2024/01/11 10:56:33;;;;;;;46.90;24.77;;;;;;;;;;5099770;28;20149;-69
2024/01/11 10:58:59;;;;;;;47.88;25.08;;;;;;;;;;5097868;28;20061;-83
2024/01/11 11:01:25;;;;;;;44.47;23.35;;;;;;;;;;5088418;28;20031;-68
2024/01/11 11:03:53;;;;;;;49.05;25.85;;;;;;;;;;5119787;28;20047;-70
2024/01/11 11:06:20;;;;;;;48.15;24.42;;;;;;;;;;5119468;28;20032;-70
2024/01/11 11:08:48;;;;;;;45.35;23.42;;;;;;;;;;5108699;27;20494;-70
2024/01/11 11:11:14;;;;;;;46.00;23.58;;;;;;;;;;5122090;28;20038;-70
2024/01/11 11:13:41;;;;;;;48.50;26.08;;;;;;;;;;5096304;28;20058;-69
2024/01/11 11:16:07;;;;;;;47.08;23.48;;;;;;;;;;5096468;27;20047;-69
2024/01/11 11:18:36;;;;;;;43.95;23.27;;;;;;;;;;5116622;27;20074;-69
2024/01/11 11:21:07;;;;;;;49.88;24.90;;;;;;;;;;5091487;28;20040;-69
2024/01/11 11:23:33;;;;;;;44.58;24.60;;;;;;;;;;5099680;28;20487;-68
2024/01/11 11:25:59;;;;;;;48.10;24.30;;;;;;;;;;5092164;28;20048;-68
2024/01/11 11:28:26;;;;;;;46.55;23.55;;;;;;;;;;5102000;27;20042;-68
2024/01/11 11:30:53;;;;;;;42.15;23.33;;;;;;;;;;5101576;28;20048;-69
2024/01/11 11:33:20;;;;;;;45.67;22.40;;;;;;;;;;5101901;27;20047;-68
2024/01/11 11:35:47;;;;;;;42.28;22.85;;;;;;;;;;5103150;28;20032;-69
2024/01/11 11:38:18;;;;;;;41.88;22.33;;;;;;;;;;5092228;28;20048;-69
2024/01/11 11:40:46;;;;;;;43.45;22.90;;;;;;;;;;5093616;28;20130;-68
2024/01/11 11:43:13;;;;;;;42.40;23.25;;;;;;;;;;5104945;28;20044;-69
2024/01/11 11:45:41;;;;;;;44.40;22.83;;;;;;;;;;5080289;28;20036;-67
2024/01/11 11:48:28;;;;;;;41.45;21.52;;;;;;;;;;5101460;28;20048;-67
2024/01/11 11:51:06;;;;;;;40.65;21.80;;;;;;;;;;5097143;28;20066;-67
2024/01/11 11:53:34;;;;;;;48.50;23.95;;;;;;;;;;5099677;28;20403;-67
2024/01/11 11:56:00;;;;;;;45.22;22.90;;;;;;;;;;5095297;28;20042;-67
2024/01/11 11:58:28;;;;;;;39.40;22.85;;;;;;;;;;5094523;28;20062;-67
2024/01/11 12:00:55;;;;;;;45.75;21.08;;;;;;;;;;5096537;28;20040;-68
2024/01/11 12:03:24;;;;;;;39.00;20.77;;;;;;;;;;5093000;28;20031;-68
2024/01/11 12:05:51;;;;;;;37.35;19.20;;;;;;;;;;5091248;28;20444;-68
2024/01/11 12:08:17;;;;;;;38.67;20.98;;;;;;;;;;5101370;27;20113;-71
2024/01/11 12:10:43;;;;;;;42.50;20.85;;;;;;;;;;5102045;28;20067;-68
2024/01/11 12:13:09;;;;;;;37.97;20.92;;;;;;;;;;5094381;28;20109;-68
2024/01/11 12:15:36;;;;;;;38.28;21.10;;;;;;;;;;5095222;28;20039;-69
2024/01/11 12:18:02;;;;;;;41.80;21.02;;;;;;;;;;5096151;28;20040;-73
2024/01/11 12:20:29;;;;;;;39.05;19.80;;;;;;;;;;5098643;28;20055;-68
2024/01/11 12:22:55;;;;;;;45.00;20.77;;;;;;;;;;5105609;28;20042;-68
2024/01/11 12:25:21;;;;;;;44.75;21.40;;;;;;;;;;5107533;28;20470;-68
2024/01/11 12:27:48;;;;;;;39.00;20.30;;;;;;;;;;5100979;28;20039;-68
2024/01/11 12:30:16;;;;;;;41.10;20.13;;;;;;;;;;5097560;28;20054;-68
2024/01/11 12:32:43;;;;;;;40.72;20.23;;;;;;;;;;5103897;28;21150;-68
2024/01/11 12:35:10;;;;;;;40.53;19.45;;;;;;;;;;5107263;27;20673;-68
2024/01/11 12:37:36;;;;;;;45.13;19.17;;;;;;;;;;5120407;27;20395;-68
2024/01/11 12:40:03;;;;;;;39.90;18.90;;;;;;;;;;5123190;27;20065;-68
2024/01/11 12:42:29;;;;;;;48.92;21.55;;;;;;;;;;5089898;27;20530;-68
2024/01/11 12:44:56;;;;;;;56.33;23.90;;;;;;;;;;5124032;27;20042;-68
2024/01/11 12:47:22;;;;;;;44.13;21.38;;;;;;;;;;5114400;27;20040;-68
2024/01/11 12:49:48;;;;;;;39.78;19.92;;;;;;;;;;5119847;27;20043;-68
2024/01/11 12:52:17;;;;;;;46.67;20.67;;;;;;;;;;5108864;27;20039;-68
2024/01/11 12:54:47;;;;;;;42.47;20.77;;;;;;;;;;5108354;27;20043;-68
2024/01/11 12:57:19;;;;;;;42.72;20.00;;;;;;;;;;5107695;27;20039;-68
2024/01/11 12:59:45;;;;;;;47.08;21.27;;;;;;;;;;5104476;27;20502;-68
2024/01/11 13:02:15;;;;;;;43.40;18.98;;;;;;;;;;5122763;27;20035;-68
2024/01/11 13:04:41;;;;;;;48.85;21.10;;;;;;;;;;5101489;28;20048;-69
2024/01/11 13:07:07;;;;;;;55.17;21.63;;;;;;;;;;5123128;27;20041;-68
2024/01/11 13:09:33;;;;;;;54.72;22.80;;;;;;;;;;5125002;27;20047;-69
2024/01/11 13:12:00;;;;;;;37.65;13.63;;;;;;;;;;5121406;27;20039;-68
2024/01/11 13:14:28;;;;;;;35.58;10.43;;;;;;;;;;5091255;27;20055;-69
2024/01/11 13:16:55;;;;;;;39.88;7.93;;;;;;;;;;5104386;27;20054;-69
2024/01/11 13:19:21;;;;;;;40.40;6.25;;;;;;;;;;5121991;27;20046;-69
2024/01/11 13:21:47;;;;;;;45.78;8.07;;;;;;;;;;5105090;27;20031;-69
2024/01/11 13:24:13;;;;;;;43.30;8.75;;;;;;;;;;5101196;27;20044;-84
2024/01/11 13:26:40;;;;;;;51.95;17.13;;;;;;;;;;5099698;28;20047;-69
2024/01/11 13:29:06;;;;;;;48.20;16.52;;;;;;;;;;5095319;28;20066;-68
2024/01/11 13:31:33;;;;;;;40.42;14.98;;;;;;;;;;5124373;27;20363;-69
2024/01/11 13:33:59;;;;;;;39.83;14.02;;;;;;;;;;5114217;27;20435;-68
2024/01/11 13:36:26;;;;;;;37.70;10.90;;;;;;;;;;5081949;27;20058;-69
2024/01/11 13:38:53;;;;;;;52.35;7.10;;;;;;;;;;5102217;27;20081;-69
2024/01/11 13:41:19;;;;;;;44.90;7.05;;;;;;;;;;5101060;27;20031;-69
2024/01/11 13:43:45;;;;;;;38.60;5.90;;;;;;;;;;5102445;27;20126;-68
2024/01/11 13:46:14;;;;;;;33.30;6.95;;;;;;;;;;5119755;27;20069;-69
2024/01/11 13:48:40;;;;;;;33.90;6.00;;;;;;;;;;5100853;27;20347;-68
2024/01/11 13:51:08;;;;;;;37.80;6.65;;;;;;;;;;5122514;27;20047;-68
2024/01/11 13:53:35;;;;;;;45.78;5.47;;;;;;;;;;5106037;27;20040;-68
2024/01/11 13:56:01;;;;;;;46.08;8.98;;;;;;;;;;5084030;27;20043;-69
2024/01/11 13:58:27;;;;;;;39.30;6.00;;;;;;;;;;5105685;27;20545;-68
2024/01/11 14:00:53;;;;;;;46.58;6.68;;;;;;;;;;5103767;27;20131;-68
2024/01/11 14:03:19;;;;;;;46.47;6.45;;;;;;;;;;5105477;27;20043;-68
2024/01/11 14:05:46;;;;;;;40.33;5.65;;;;;;;;;;5107188;27;20041;-68
2024/01/11 14:08:13;;;;;;;38.67;6.25;;;;;;;;;;5097870;28;20421;-68
2024/01/11 14:10:39;;;;;;;37.03;6.03;;;;;;;;;;5105730;28;20138;-68
2024/01/11 14:13:05;;;;;;;39.45;7.00;;;;;;;;;;5100035;27;20051;-68
2024/01/11 14:15:32;;;;;;;41.20;7.25;;;;;;;;;;5104580;27;20455;-68